sensor_id;sensor_type;location;lat;lon;timestamp;P1;durP1;ratioP1;P2;durP2;ratioP2
31808;SDS011;18379;48.208;-1.518;2022-09-27T00:03:52;44.50;;;41.37;;
31808;SDS011;18379;48.208;-1.518;2022-09-27T00:08:56;41.77;;;38.60;;
31808;SDS011;18379;48.208;-1.518;2022-09-27T00:14:04;46.10;;;42.17;;
31808;SDS011;18379;48.208;-1.518;2022-09-27T00:19:31;41.53;;;38.50;;
31808;SDS011;18379;48.208;-1.518;2022-09-27T00:24:35;45.07;;;41.47;;
31808;SDS011;18379;48.208;-1.518;2022-09-27T00:29:36;44.13;;;40.77;;
31808;SDS011;18379;48.208;-1.518;2022-09-27T00:34:49;46.23;;;42.53;;
31808;SDS011;18379;48.208;-1.518;2022-09-27T00:39:54;41.73;;;38.13;;
31808;SDS011;18379;48.208;-1.518;2022-09-27T00:45:14;43.70;;;40.30;;
31808;SDS011;18379;48.208;-1.518;2022-09-27T00:55:30;43.30;;;40.20;;
31808;SDS011;18379;48.208;-1.518;2022-09-27T01:01:11;44.07;;;40.43;;
31808;SDS011;18379;48.208;-1.518;2022-09-27T01:06:15;49.63;;;45.33;;
31808;SDS011;18379;48.208;-1.518;2022-09-27T01:11:24;45.07;;;41.53;;
31808;SDS011;18379;48.208;-1.518;2022-09-27T01:17:05;42.73;;;39.37;;
31808;SDS011;18379;48.208;-1.518;2022-09-27T01:28:11;43.40;;;40.43;;
31808;SDS011;18379;48.208;-1.518;2022-09-27T01:33:24;47.10;;;43.47;;
31808;SDS011;18379;48.208;-1.518;2022-09-27T01:38:54;46.73;;;43.07;;
31808;SDS011;18379;48.208;-1.518;2022-09-27T01:44:22;43.53;;;40.27;;
31808;SDS011;18379;48.208;-1.518;2022-09-27T01:49:55;45.37;;;41.90;;
31808;SDS011;18379;48.208;-1.518;2022-09-27T01:55:03;44.60;;;40.87;;
31808;SDS011;18379;48.208;-1.518;2022-09-27T02:00:12;43.10;;;39.87;;
31808;SDS011;18379;48.208;-1.518;2022-09-27T02:05:14;44.33;;;40.87;;
31808;SDS011;18379;48.208;-1.518;2022-09-27T02:10:25;44.13;;;41.17;;
31808;SDS011;18379;48.208;-1.518;2022-09-27T02:27:05;41.90;;;38.87;;
31808;SDS011;18379;48.208;-1.518;2022-09-27T02:32:21;40.00;;;37.30;;
31808;SDS011;18379;48.208;-1.518;2022-09-27T02:37:22;42.93;;;39.83;;
31808;SDS011;18379;48.208;-1.518;2022-09-27T02:42:23;40.83;;;37.77;;
31808;SDS011;18379;48.208;-1.518;2022-09-27T02:47:28;41.00;;;37.60;;
31808;SDS011;18379;48.208;-1.518;2022-09-27T03:09:50;46.07;;;42.30;;
31808;SDS011;18379;48.208;-1.518;2022-09-27T03:14:57;40.73;;;37.80;;
31808;SDS011;18379;48.208;-1.518;2022-09-27T03:20:04;43.63;;;40.20;;
31808;SDS011;18379;48.208;-1.518;2022-09-27T03:25:09;43.43;;;40.03;;
31808;SDS011;18379;48.208;-1.518;2022-09-27T03:30:25;57.73;;;52.43;;
31808;SDS011;18379;48.208;-1.518;2022-09-27T03:35:26;40.77;;;37.67;;
31808;SDS011;18379;48.208;-1.518;2022-09-27T03:40:27;40.60;;;37.60;;
31808;SDS011;18379;48.208;-1.518;2022-09-27T03:45:40;43.23;;;39.87;;
31808;SDS011;18379;48.208;-1.518;2022-09-27T03:50:56;42.30;;;39.37;;
31808;SDS011;18379;48.208;-1.518;2022-09-27T03:55:57;39.77;;;37.07;;
31808;SDS011;18379;48.208;-1.518;2022-09-27T04:01:03;43.90;;;40.30;;
31808;SDS011;18379;48.208;-1.518;2022-09-27T04:06:09;47.07;;;42.90;;
31808;SDS011;18379;48.208;-1.518;2022-09-27T04:11:13;47.90;;;43.57;;
31808;SDS011;18379;48.208;-1.518;2022-09-27T04:16:17;49.13;;;44.97;;
31808;SDS011;18379;48.208;-1.518;2022-09-27T04:21:33;40.80;;;37.87;;
31808;SDS011;18379;48.208;-1.518;2022-09-27T04:26:37;47.00;;;43.07;;
31808;SDS011;18379;48.208;-1.518;2022-09-27T04:31:41;44.57;;;40.90;;
31808;SDS011;18379;48.208;-1.518;2022-09-27T04:36:49;40.53;;;37.37;;
31808;SDS011;18379;48.208;-1.518;2022-09-27T04:41:54;40.70;;;37.60;;
31808;SDS011;18379;48.208;-1.518;2022-09-27T04:46:59;40.60;;;37.67;;
31808;SDS011;18379;48.208;-1.518;2022-09-27T04:52:02;43.87;;;40.07;;
31808;SDS011;18379;48.208;-1.518;2022-09-27T04:57:11;46.83;;;43.03;;
31808;SDS011;18379;48.208;-1.518;2022-09-27T05:02:23;47.27;;;43.60;;
31808;SDS011;18379;48.208;-1.518;2022-09-27T05:07:32;41.23;;;38.30;;
31808;SDS011;18379;48.208;-1.518;2022-09-27T05:12:38;44.97;;;40.77;;
31808;SDS011;18379;48.208;-1.518;2022-09-27T05:17:42;41.83;;;38.73;;
31808;SDS011;18379;48.208;-1.518;2022-09-27T05:22:47;43.63;;;39.83;;
31808;SDS011;18379;48.208;-1.518;2022-09-27T05:27:48;42.97;;;39.33;;
31808;SDS011;18379;48.208;-1.518;2022-09-27T05:32:50;45.63;;;41.90;;
31808;SDS011;18379;48.208;-1.518;2022-09-27T05:37:52;41.07;;;38.00;;
31808;SDS011;18379;48.208;-1.518;2022-09-27T05:42:57;40.77;;;37.70;;
31808;SDS011;18379;48.208;-1.518;2022-09-27T05:47:58;41.90;;;38.40;;
31808;SDS011;18379;48.208;-1.518;2022-09-27T05:52:59;41.90;;;38.70;;
31808;SDS011;18379;48.208;-1.518;2022-09-27T05:58:05;41.07;;;38.10;;
31808;SDS011;18379;48.208;-1.518;2022-09-27T06:03:10;54.07;;;49.17;;
31808;SDS011;18379;48.208;-1.518;2022-09-27T06:08:12;43.50;;;40.13;;
31808;SDS011;18379;48.208;-1.518;2022-09-27T06:13:14;45.47;;;41.43;;
31808;SDS011;18379;48.208;-1.518;2022-09-27T06:18:15;44.33;;;40.63;;
31808;SDS011;18379;48.208;-1.518;2022-09-27T06:23:20;51.67;;;46.70;;
31808;SDS011;18379;48.208;-1.518;2022-09-27T06:28:22;40.73;;;37.60;;
31808;SDS011;18379;48.208;-1.518;2022-09-27T06:33:23;39.90;;;36.97;;
31808;SDS011;18379;48.208;-1.518;2022-09-27T06:38:24;40.07;;;37.13;;
31808;SDS011;18379;48.208;-1.518;2022-09-27T06:43:25;40.27;;;37.17;;
31808;SDS011;18379;48.208;-1.518;2022-09-27T06:48:26;40.60;;;37.63;;
31808;SDS011;18379;48.208;-1.518;2022-09-27T06:53:28;40.03;;;36.93;;
31808;SDS011;18379;48.208;-1.518;2022-09-27T06:58:29;39.57;;;36.90;;
31808;SDS011;18379;48.208;-1.518;2022-09-27T07:03:49;46.53;;;42.90;;
31808;SDS011;18379;48.208;-1.518;2022-09-27T07:08:50;44.73;;;41.03;;
31808;SDS011;18379;48.208;-1.518;2022-09-27T07:13:51;43.87;;;40.20;;
31808;SDS011;18379;48.208;-1.518;2022-09-27T07:18:52;39.43;;;36.60;;
31808;SDS011;18379;48.208;-1.518;2022-09-27T07:23:53;40.80;;;37.27;;
31808;SDS011;18379;48.208;-1.518;2022-09-27T07:28:53;40.03;;;36.90;;
31808;SDS011;18379;48.208;-1.518;2022-09-27T07:33:55;43.77;;;39.23;;
31808;SDS011;18379;48.208;-1.518;2022-09-27T07:38:57;42.20;;;38.20;;
31808;SDS011;18379;48.208;-1.518;2022-09-27T07:43:59;40.60;;;37.10;;
31808;SDS011;18379;48.208;-1.518;2022-09-27T07:49:00;44.90;;;40.87;;
31808;SDS011;18379;48.208;-1.518;2022-09-27T07:54:01;47.00;;;42.77;;
31808;SDS011;18379;48.208;-1.518;2022-09-27T07:59:02;51.73;;;47.23;;
31808;SDS011;18379;48.208;-1.518;2022-09-27T08:04:03;54.67;;;49.00;;
31808;SDS011;18379;48.208;-1.518;2022-09-27T08:09:07;56.20;;;50.63;;
31808;SDS011;18379;48.208;-1.518;2022-09-27T08:14:11;56.80;;;51.30;;
31808;SDS011;18379;48.208;-1.518;2022-09-27T08:19:13;56.40;;;50.97;;
31808;SDS011;18379;48.208;-1.518;2022-09-27T08:24:14;58.43;;;52.83;;
31808;SDS011;18379;48.208;-1.518;2022-09-27T08:29:15;56.17;;;51.17;;
31808;SDS011;18379;48.208;-1.518;2022-09-27T08:34:16;57.43;;;51.77;;
31808;SDS011;18379;48.208;-1.518;2022-09-27T08:39:17;53.90;;;48.83;;
31808;SDS011;18379;48.208;-1.518;2022-09-27T08:44:24;50.97;;;46.20;;
31808;SDS011;18379;48.208;-1.518;2022-09-27T08:49:32;42.37;;;39.17;;
31808;SDS011;18379;48.208;-1.518;2022-09-27T08:54:51;43.50;;;39.80;;
31808;SDS011;18379;48.208;-1.518;2022-09-27T09:00:02;43.13;;;39.17;;
31808;SDS011;18379;48.208;-1.518;2022-09-27T09:05:11;59.80;;;53.60;;
31808;SDS011;18379;48.208;-1.518;2022-09-27T09:16:02;44.03;;;39.90;;
31808;SDS011;18379;48.208;-1.518;2022-09-27T09:37:20;61.60;;;55.57;;
31808;SDS011;18379;48.208;-1.518;2022-09-27T09:48:06;52.43;;;47.17;;
31808;SDS011;18379;48.208;-1.518;2022-09-27T09:58:27;52.03;;;46.57;;
31808;SDS011;18379;48.208;-1.518;2022-09-27T10:03:48;53.77;;;48.13;;
31808;SDS011;18379;48.208;-1.518;2022-09-27T10:08:49;49.33;;;44.80;;
31808;SDS011;18379;48.208;-1.518;2022-09-27T10:13:53;45.70;;;41.43;;
31808;SDS011;18379;48.208;-1.518;2022-09-27T10:18:56;46.50;;;42.20;;
31808;SDS011;18379;48.208;-1.518;2022-09-27T10:24:03;52.30;;;47.50;;
31808;SDS011;18379;48.208;-1.518;2022-09-27T10:29:13;59.10;;;53.63;;
31808;SDS011;18379;48.208;-1.518;2022-09-27T10:34:34;58.67;;;52.67;;
31808;SDS011;18379;48.208;-1.518;2022-09-27T10:39:39;62.57;;;56.43;;
31808;SDS011;18379;48.208;-1.518;2022-09-27T10:44:40;62.07;;;55.93;;
31808;SDS011;18379;48.208;-1.518;2022-09-27T10:49:41;61.93;;;56.23;;
31808;SDS011;18379;48.208;-1.518;2022-09-27T10:54:43;63.93;;;57.57;;
31808;SDS011;18379;48.208;-1.518;2022-09-27T11:00:04;47.67;;;43.50;;
31808;SDS011;18379;48.208;-1.518;2022-09-27T11:10:27;46.97;;;42.30;;
31808;SDS011;18379;48.208;-1.518;2022-09-27T11:15:30;48.63;;;43.93;;
31808;SDS011;18379;48.208;-1.518;2022-09-27T11:21:03;47.73;;;43.03;;
31808;SDS011;18379;48.208;-1.518;2022-09-27T11:26:42;61.03;;;54.00;;
31808;SDS011;18379;48.208;-1.518;2022-09-27T11:37:15;61.27;;;54.20;;
31808;SDS011;18379;48.208;-1.518;2022-09-27T11:42:37;47.47;;;42.87;;
31808;SDS011;18379;48.208;-1.518;2022-09-27T12:09:33;47.73;;;43.70;;
31808;SDS011;18379;48.208;-1.518;2022-09-27T12:14:59;63.70;;;57.33;;
31808;SDS011;18379;48.208;-1.518;2022-09-27T12:20:09;59.53;;;53.67;;
31808;SDS011;18379;48.208;-1.518;2022-09-27T12:25:35;57.17;;;51.40;;
31808;SDS011;18379;48.208;-1.518;2022-09-27T12:30:40;63.20;;;56.87;;
31808;SDS011;18379;48.208;-1.518;2022-09-27T12:35:46;62.83;;;56.33;;
31808;SDS011;18379;48.208;-1.518;2022-09-27T12:40:52;51.17;;;46.17;;
31808;SDS011;18379;48.208;-1.518;2022-09-27T12:45:59;47.23;;;42.97;;
31808;SDS011;18379;48.208;-1.518;2022-09-27T12:51:22;49.53;;;44.83;;
31808;SDS011;18379;48.208;-1.518;2022-09-27T13:07:20;62.13;;;55.73;;
31808;SDS011;18379;48.208;-1.518;2022-09-27T13:12:47;60.97;;;55.03;;
31808;SDS011;18379;48.208;-1.518;2022-09-27T13:17:51;49.13;;;44.53;;
31808;SDS011;18379;48.208;-1.518;2022-09-27T13:22:55;48.37;;;43.80;;
31808;SDS011;18379;48.208;-1.518;2022-09-27T13:27:57;47.87;;;43.37;;
31808;SDS011;18379;48.208;-1.518;2022-09-27T13:38:21;60.70;;;54.80;;
31808;SDS011;18379;48.208;-1.518;2022-09-27T13:43:37;47.50;;;43.03;;
31808;SDS011;18379;48.208;-1.518;2022-09-27T13:49:18;62.27;;;56.30;;
31808;SDS011;18379;48.208;-1.518;2022-09-27T13:54:37;47.83;;;43.20;;
31808;SDS011;18379;48.208;-1.518;2022-09-27T13:59:48;55.53;;;50.80;;
31808;SDS011;18379;48.208;-1.518;2022-09-27T14:04:51;46.13;;;42.07;;
31808;SDS011;18379;48.208;-1.518;2022-09-27T14:09:54;46.13;;;42.17;;
31808;SDS011;18379;48.208;-1.518;2022-09-27T14:15:00;45.93;;;42.23;;
31808;SDS011;18379;48.208;-1.518;2022-09-27T14:20:03;53.17;;;48.63;;
31808;SDS011;18379;48.208;-1.518;2022-09-27T14:25:15;58.93;;;53.73;;
31808;SDS011;18379;48.208;-1.518;2022-09-27T14:30:18;61.60;;;56.17;;
31808;SDS011;18379;48.208;-1.518;2022-09-27T14:35:21;49.60;;;45.07;;
31808;SDS011;18379;48.208;-1.518;2022-09-27T14:40:53;60.37;;;55.00;;
31808;SDS011;18379;48.208;-1.518;2022-09-27T14:45:58;45.47;;;41.73;;
31808;SDS011;18379;48.208;-1.518;2022-09-27T14:51:02;48.10;;;44.13;;
31808;SDS011;18379;48.208;-1.518;2022-09-27T14:56:10;59.67;;;54.33;;
31808;SDS011;18379;48.208;-1.518;2022-09-27T15:01:17;62.37;;;57.00;;
31808;SDS011;18379;48.208;-1.518;2022-09-27T15:06:22;45.43;;;42.23;;
31808;SDS011;18379;48.208;-1.518;2022-09-27T15:11:24;46.90;;;42.97;;
31808;SDS011;18379;48.208;-1.518;2022-09-27T15:16:26;46.43;;;42.53;;
31808;SDS011;18379;48.208;-1.518;2022-09-27T15:21:31;45.83;;;42.30;;
31808;SDS011;18379;48.208;-1.518;2022-09-27T15:26:38;54.63;;;50.13;;
31808;SDS011;18379;48.208;-1.518;2022-09-27T15:31:56;59.17;;;54.27;;
31808;SDS011;18379;48.208;-1.518;2022-09-27T15:37:00;45.13;;;41.80;;
31808;SDS011;18379;48.208;-1.518;2022-09-27T15:52:40;58.57;;;53.53;;
31808;SDS011;18379;48.208;-1.518;2022-09-27T15:57:55;47.63;;;43.90;;
31808;SDS011;18379;48.208;-1.518;2022-09-27T16:03:04;59.10;;;53.70;;
31808;SDS011;18379;48.208;-1.518;2022-09-27T16:08:05;58.07;;;52.97;;
31808;SDS011;18379;48.208;-1.518;2022-09-27T16:13:07;58.57;;;53.40;;
31808;SDS011;18379;48.208;-1.518;2022-09-27T16:18:08;58.67;;;53.63;;
31808;SDS011;18379;48.208;-1.518;2022-09-27T16:23:10;61.40;;;56.30;;
31808;SDS011;18379;48.208;-1.518;2022-09-27T16:28:11;62.93;;;56.97;;
31808;SDS011;18379;48.208;-1.518;2022-09-27T16:33:11;59.57;;;54.97;;
31808;SDS011;18379;48.208;-1.518;2022-09-27T16:38:12;48.40;;;44.60;;
31808;SDS011;18379;48.208;-1.518;2022-09-27T16:43:13;54.67;;;50.53;;
31808;SDS011;18379;48.208;-1.518;2022-09-27T16:48:18;48.00;;;44.70;;
31808;SDS011;18379;48.208;-1.518;2022-09-27T16:53:21;47.33;;;44.13;;
31808;SDS011;18379;48.208;-1.518;2022-09-27T16:58:27;44.33;;;41.57;;
31808;SDS011;18379;48.208;-1.518;2022-09-27T17:03:40;44.80;;;41.97;;
31808;SDS011;18379;48.208;-1.518;2022-09-27T17:08:49;45.43;;;42.60;;
31808;SDS011;18379;48.208;-1.518;2022-09-27T17:13:54;43.93;;;41.33;;
31808;SDS011;18379;48.208;-1.518;2022-09-27T17:18:55;43.47;;;40.90;;
31808;SDS011;18379;48.208;-1.518;2022-09-27T17:23:55;43.47;;;40.83;;
31808;SDS011;18379;48.208;-1.518;2022-09-27T17:28:57;43.53;;;41.03;;
31808;SDS011;18379;48.208;-1.518;2022-09-27T17:34:00;44.17;;;41.47;;
31808;SDS011;18379;48.208;-1.518;2022-09-27T17:39:02;44.53;;;41.93;;
31808;SDS011;18379;48.208;-1.518;2022-09-27T17:44:03;45.10;;;42.33;;
31808;SDS011;18379;48.208;-1.518;2022-09-27T17:49:05;45.70;;;42.90;;
31808;SDS011;18379;48.208;-1.518;2022-09-27T17:54:24;43.00;;;40.50;;
31808;SDS011;18379;48.208;-1.518;2022-09-27T17:59:26;43.30;;;40.80;;
31808;SDS011;18379;48.208;-1.518;2022-09-27T18:04:27;43.80;;;41.27;;
31808;SDS011;18379;48.208;-1.518;2022-09-27T18:09:28;43.20;;;40.83;;
31808;SDS011;18379;48.208;-1.518;2022-09-27T18:14:29;43.73;;;41.33;;
31808;SDS011;18379;48.208;-1.518;2022-09-27T18:19:31;43.90;;;41.20;;
31808;SDS011;18379;48.208;-1.518;2022-09-27T18:24:32;44.23;;;41.63;;
31808;SDS011;18379;48.208;-1.518;2022-09-27T18:29:33;45.83;;;42.80;;
31808;SDS011;18379;48.208;-1.518;2022-09-27T18:34:34;46.40;;;43.33;;
31808;SDS011;18379;48.208;-1.518;2022-09-27T18:39:35;48.07;;;44.87;;
31808;SDS011;18379;48.208;-1.518;2022-09-27T18:44:39;45.83;;;42.83;;
31808;SDS011;18379;48.208;-1.518;2022-09-27T18:49:41;47.53;;;43.77;;
31808;SDS011;18379;48.208;-1.518;2022-09-27T18:54:41;46.33;;;43.03;;
31808;SDS011;18379;48.208;-1.518;2022-09-27T18:59:42;46.67;;;43.60;;
31808;SDS011;18379;48.208;-1.518;2022-09-27T19:04:45;46.90;;;43.00;;
31808;SDS011;18379;48.208;-1.518;2022-09-27T19:09:46;46.90;;;43.70;;
31808;SDS011;18379;48.208;-1.518;2022-09-27T19:14:46;46.90;;;43.67;;
31808;SDS011;18379;48.208;-1.518;2022-09-27T19:19:47;49.57;;;46.03;;
31808;SDS011;18379;48.208;-1.518;2022-09-27T19:24:49;45.67;;;42.63;;
31808;SDS011;18379;48.208;-1.518;2022-09-27T19:29:50;43.93;;;40.77;;
31808;SDS011;18379;48.208;-1.518;2022-09-27T19:34:51;43.27;;;40.50;;
31808;SDS011;18379;48.208;-1.518;2022-09-27T19:39:52;46.30;;;43.37;;
31808;SDS011;18379;48.208;-1.518;2022-09-27T19:44:53;45.70;;;42.77;;
31808;SDS011;18379;48.208;-1.518;2022-09-27T19:49:54;42.77;;;40.37;;
31808;SDS011;18379;48.208;-1.518;2022-09-27T19:54:56;45.27;;;42.50;;
31808;SDS011;18379;48.208;-1.518;2022-09-27T19:59:57;43.23;;;40.53;;
31808;SDS011;18379;48.208;-1.518;2022-09-27T20:05:01;41.93;;;39.67;;
31808;SDS011;18379;48.208;-1.518;2022-09-27T20:10:02;42.93;;;40.40;;
31808;SDS011;18379;48.208;-1.518;2022-09-27T20:15:04;44.93;;;41.93;;
31808;SDS011;18379;48.208;-1.518;2022-09-27T20:20:05;48.50;;;44.83;;
31808;SDS011;18379;48.208;-1.518;2022-09-27T20:25:07;46.73;;;43.43;;
31808;SDS011;18379;48.208;-1.518;2022-09-27T20:30:08;47.00;;;43.70;;
31808;SDS011;18379;48.208;-1.518;2022-09-27T20:35:09;47.13;;;43.83;;
31808;SDS011;18379;48.208;-1.518;2022-09-27T20:40:10;49.17;;;45.67;;
31808;SDS011;18379;48.208;-1.518;2022-09-27T20:45:11;46.70;;;43.60;;
31808;SDS011;18379;48.208;-1.518;2022-09-27T20:50:12;51.37;;;47.80;;
31808;SDS011;18379;48.208;-1.518;2022-09-27T20:55:13;47.73;;;44.60;;
31808;SDS011;18379;48.208;-1.518;2022-09-27T21:00:14;45.50;;;42.60;;
31808;SDS011;18379;48.208;-1.518;2022-09-27T21:05:15;49.10;;;45.63;;
31808;SDS011;18379;48.208;-1.518;2022-09-27T21:10:16;50.17;;;46.77;;
31808;SDS011;18379;48.208;-1.518;2022-09-27T21:15:16;44.50;;;41.90;;
31808;SDS011;18379;48.208;-1.518;2022-09-27T21:20:18;45.50;;;42.77;;
31808;SDS011;18379;48.208;-1.518;2022-09-27T21:25:19;44.20;;;41.60;;
31808;SDS011;18379;48.208;-1.518;2022-09-27T21:30:20;42.40;;;40.10;;
31808;SDS011;18379;48.208;-1.518;2022-09-27T21:35:24;41.77;;;39.57;;
31808;SDS011;18379;48.208;-1.518;2022-09-27T21:40:25;41.97;;;39.67;;
31808;SDS011;18379;48.208;-1.518;2022-09-27T21:45:26;41.90;;;39.60;;
31808;SDS011;18379;48.208;-1.518;2022-09-27T21:50:27;41.73;;;39.53;;
31808;SDS011;18379;48.208;-1.518;2022-09-27T21:55:30;41.20;;;39.03;;
31808;SDS011;18379;48.208;-1.518;2022-09-27T22:00:31;41.57;;;39.37;;
31808;SDS011;18379;48.208;-1.518;2022-09-27T22:05:32;42.00;;;39.73;;
31808;SDS011;18379;48.208;-1.518;2022-09-27T22:10:32;42.93;;;40.60;;
31808;SDS011;18379;48.208;-1.518;2022-09-27T22:15:34;43.00;;;40.50;;
31808;SDS011;18379;48.208;-1.518;2022-09-27T22:20:36;44.60;;;42.00;;
31808;SDS011;18379;48.208;-1.518;2022-09-27T22:25:37;44.20;;;41.57;;
31808;SDS011;18379;48.208;-1.518;2022-09-27T22:30:39;43.83;;;41.23;;
31808;SDS011;18379;48.208;-1.518;2022-09-27T22:35:47;44.30;;;41.70;;
31808;SDS011;18379;48.208;-1.518;2022-09-27T22:40:54;48.80;;;45.63;;
31808;SDS011;18379;48.208;-1.518;2022-09-27T22:45:56;42.13;;;39.70;;
31808;SDS011;18379;48.208;-1.518;2022-09-27T22:51:01;41.00;;;38.80;;
31808;SDS011;18379;48.208;-1.518;2022-09-27T22:56:05;42.73;;;40.23;;
31808;SDS011;18379;48.208;-1.518;2022-09-27T23:01:12;56.43;;;52.20;;
31808;SDS011;18379;48.208;-1.518;2022-09-27T23:06:21;42.83;;;40.33;;
31808;SDS011;18379;48.208;-1.518;2022-09-27T23:11:21;42.27;;;39.77;;
31808;SDS011;18379;48.208;-1.518;2022-09-27T23:16:22;41.00;;;38.80;;
31808;SDS011;18379;48.208;-1.518;2022-09-27T23:21:24;40.80;;;38.70;;
31808;SDS011;18379;48.208;-1.518;2022-09-27T23:26:26;41.90;;;39.63;;
31808;SDS011;18379;48.208;-1.518;2022-09-27T23:31:29;41.53;;;39.37;;
31808;SDS011;18379;48.208;-1.518;2022-09-27T23:36:31;41.67;;;39.37;;
31808;SDS011;18379;48.208;-1.518;2022-09-27T23:41:33;43.10;;;40.77;;
31808;SDS011;18379;48.208;-1.518;2022-09-27T23:46:34;43.07;;;40.70;;
31808;SDS011;18379;48.208;-1.518;2022-09-27T23:51:34;43.33;;;40.97;;
31808;SDS011;18379;48.208;-1.518;2022-09-27T23:56:36;43.63;;;41.13;;
